sensor_id;sensor_type;location;lat;lon;timestamp;P1;durP1;ratioP1;P2;durP2;ratioP2
54271;SDS011;40184;53.362;5.216;2024-03-07T00:02:10;46.47;;;35.47;;
54271;SDS011;40184;53.362;5.216;2024-03-07T00:04:36;45.90;;;34.10;;
54271;SDS011;40184;53.362;5.216;2024-03-07T00:07:03;48.92;;;34.63;;
54271;SDS011;40184;53.362;5.216;2024-03-07T00:09:31;47.65;;;35.25;;
54271;SDS011;40184;53.362;5.216;2024-03-07T00:11:57;50.95;;;33.45;;
54271;SDS011;40184;53.362;5.216;2024-03-07T00:14:23;47.08;;;33.50;;
54271;SDS011;40184;53.362;5.216;2024-03-07T00:16:58;47.67;;;32.38;;
54271;SDS011;40184;53.362;5.216;2024-03-07T00:19:24;46.38;;;32.75;;
54271;SDS011;40184;53.362;5.216;2024-03-07T00:21:58;43.03;;;32.40;;
54271;SDS011;40184;53.362;5.216;2024-03-07T00:26:51;47.72;;;31.17;;
54271;SDS011;40184;53.362;5.216;2024-03-07T00:29:18;42.80;;;29.88;;
54271;SDS011;40184;53.362;5.216;2024-03-07T00:31:47;44.15;;;28.92;;
54271;SDS011;40184;53.362;5.216;2024-03-07T00:34:13;43.63;;;30.00;;
54271;SDS011;40184;53.362;5.216;2024-03-07T00:36:41;37.40;;;28.67;;
54271;SDS011;40184;53.362;5.216;2024-03-07T00:39:07;36.20;;;28.83;;
54271;SDS011;40184;53.362;5.216;2024-03-07T00:41:36;38.90;;;27.63;;
54271;SDS011;40184;53.362;5.216;2024-03-07T00:44:03;39.47;;;27.80;;
54271;SDS011;40184;53.362;5.216;2024-03-07T00:46:29;42.08;;;28.00;;
54271;SDS011;40184;53.362;5.216;2024-03-07T00:48:55;36.85;;;27.38;;
54271;SDS011;40184;53.362;5.216;2024-03-07T00:51:21;36.90;;;27.02;;
54271;SDS011;40184;53.362;5.216;2024-03-07T00:53:48;40.75;;;29.10;;
54271;SDS011;40184;53.362;5.216;2024-03-07T00:56:14;40.10;;;26.83;;
54271;SDS011;40184;53.362;5.216;2024-03-07T00:58:40;36.42;;;27.33;;
54271;SDS011;40184;53.362;5.216;2024-03-07T01:01:06;38.17;;;29.27;;
54271;SDS011;40184;53.362;5.216;2024-03-07T01:03:32;37.90;;;28.08;;
54271;SDS011;40184;53.362;5.216;2024-03-07T01:05:58;40.00;;;28.60;;
54271;SDS011;40184;53.362;5.216;2024-03-07T01:08:24;37.55;;;27.73;;
54271;SDS011;40184;53.362;5.216;2024-03-07T01:10:50;43.08;;;29.50;;
54271;SDS011;40184;53.362;5.216;2024-03-07T01:13:16;41.60;;;31.00;;
54271;SDS011;40184;53.362;5.216;2024-03-07T01:15:47;39.10;;;31.55;;
54271;SDS011;40184;53.362;5.216;2024-03-07T01:18:14;40.47;;;28.40;;
54271;SDS011;40184;53.362;5.216;2024-03-07T01:20:40;41.45;;;30.00;;
54271;SDS011;40184;53.362;5.216;2024-03-07T01:23:06;40.60;;;30.92;;
54271;SDS011;40184;53.362;5.216;2024-03-07T01:25:33;38.30;;;28.02;;
54271;SDS011;40184;53.362;5.216;2024-03-07T01:28:02;37.17;;;27.20;;
54271;SDS011;40184;53.362;5.216;2024-03-07T01:30:29;34.85;;;27.95;;
54271;SDS011;40184;53.362;5.216;2024-03-07T01:32:55;37.08;;;29.42;;
54271;SDS011;40184;53.362;5.216;2024-03-07T01:35:21;36.13;;;27.55;;
54271;SDS011;40184;53.362;5.216;2024-03-07T01:37:47;34.05;;;27.65;;
54271;SDS011;40184;53.362;5.216;2024-03-07T01:40:13;34.72;;;28.02;;
54271;SDS011;40184;53.362;5.216;2024-03-07T01:42:39;38.50;;;28.17;;
54271;SDS011;40184;53.362;5.216;2024-03-07T01:45:05;36.15;;;28.85;;
54271;SDS011;40184;53.362;5.216;2024-03-07T01:47:34;33.20;;;26.73;;
54271;SDS011;40184;53.362;5.216;2024-03-07T01:50:01;31.48;;;26.58;;
54271;SDS011;40184;53.362;5.216;2024-03-07T01:52:28;41.03;;;27.65;;
54271;SDS011;40184;53.362;5.216;2024-03-07T01:54:55;36.00;;;27.45;;
54271;SDS011;40184;53.362;5.216;2024-03-07T01:57:21;44.05;;;27.38;;
54271;SDS011;40184;53.362;5.216;2024-03-07T01:59:47;36.20;;;27.63;;
54271;SDS011;40184;53.362;5.216;2024-03-07T02:02:15;32.38;;;26.83;;
54271;SDS011;40184;53.362;5.216;2024-03-07T02:04:42;33.17;;;27.08;;
54271;SDS011;40184;53.362;5.216;2024-03-07T02:07:09;32.28;;;26.25;;
54271;SDS011;40184;53.362;5.216;2024-03-07T02:09:36;33.70;;;28.00;;
54271;SDS011;40184;53.362;5.216;2024-03-07T02:12:02;34.17;;;26.88;;
54271;SDS011;40184;53.362;5.216;2024-03-07T02:14:28;34.63;;;27.10;;
54271;SDS011;40184;53.362;5.216;2024-03-07T02:16:55;32.30;;;27.70;;
54271;SDS011;40184;53.362;5.216;2024-03-07T02:19:21;34.67;;;27.98;;
54271;SDS011;40184;53.362;5.216;2024-03-07T02:21:48;30.70;;;26.92;;
54271;SDS011;40184;53.362;5.216;2024-03-07T02:24:14;33.05;;;27.55;;
54271;SDS011;40184;53.362;5.216;2024-03-07T02:26:40;40.10;;;28.00;;
54271;SDS011;40184;53.362;5.216;2024-03-07T02:29:06;36.05;;;28.50;;
54271;SDS011;40184;53.362;5.216;2024-03-07T02:31:32;37.45;;;30.15;;
54271;SDS011;40184;53.362;5.216;2024-03-07T02:34:06;35.30;;;27.17;;
54271;SDS011;40184;53.362;5.216;2024-03-07T02:36:33;36.83;;;28.45;;
54271;SDS011;40184;53.362;5.216;2024-03-07T02:38:59;34.78;;;28.48;;
54271;SDS011;40184;53.362;5.216;2024-03-07T02:41:26;34.10;;;28.67;;
54271;SDS011;40184;53.362;5.216;2024-03-07T02:43:52;40.03;;;28.63;;
54271;SDS011;40184;53.362;5.216;2024-03-07T02:46:18;36.10;;;27.08;;
54271;SDS011;40184;53.362;5.216;2024-03-07T02:48:44;33.55;;;26.70;;
54271;SDS011;40184;53.362;5.216;2024-03-07T02:51:10;30.60;;;25.55;;
54271;SDS011;40184;53.362;5.216;2024-03-07T02:53:37;41.47;;;26.30;;
54271;SDS011;40184;53.362;5.216;2024-03-07T02:56:04;32.00;;;24.58;;
54271;SDS011;40184;53.362;5.216;2024-03-07T02:58:33;31.48;;;25.20;;
54271;SDS011;40184;53.362;5.216;2024-03-07T03:00:59;32.65;;;25.30;;
54271;SDS011;40184;53.362;5.216;2024-03-07T03:03:26;31.05;;;24.75;;
54271;SDS011;40184;53.362;5.216;2024-03-07T03:05:52;29.35;;;23.73;;
54271;SDS011;40184;53.362;5.216;2024-03-07T03:08:18;30.73;;;23.65;;
54271;SDS011;40184;53.362;5.216;2024-03-07T03:10:45;30.55;;;25.52;;
54271;SDS011;40184;53.362;5.216;2024-03-07T03:13:11;28.98;;;22.85;;
54271;SDS011;40184;53.362;5.216;2024-03-07T03:15:37;27.40;;;23.85;;
54271;SDS011;40184;53.362;5.216;2024-03-07T03:18:04;32.08;;;23.58;;
54271;SDS011;40184;53.362;5.216;2024-03-07T03:20:30;29.63;;;24.10;;
54271;SDS011;40184;53.362;5.216;2024-03-07T03:23:00;30.38;;;24.05;;
54271;SDS011;40184;53.362;5.216;2024-03-07T03:25:28;29.73;;;24.17;;
54271;SDS011;40184;53.362;5.216;2024-03-07T03:27:54;29.15;;;23.25;;
54271;SDS011;40184;53.362;5.216;2024-03-07T03:30:20;29.23;;;22.60;;
54271;SDS011;40184;53.362;5.216;2024-03-07T03:32:47;28.25;;;22.90;;
54271;SDS011;40184;53.362;5.216;2024-03-07T03:35:14;32.03;;;22.02;;
54271;SDS011;40184;53.362;5.216;2024-03-07T03:37:41;34.55;;;23.08;;
54271;SDS011;40184;53.362;5.216;2024-03-07T03:40:07;28.48;;;23.25;;
54271;SDS011;40184;53.362;5.216;2024-03-07T03:42:41;28.55;;;23.10;;
54271;SDS011;40184;53.362;5.216;2024-03-07T03:45:08;29.40;;;22.83;;
54271;SDS011;40184;53.362;5.216;2024-03-07T03:47:39;27.98;;;22.77;;
54271;SDS011;40184;53.362;5.216;2024-03-07T03:50:07;25.88;;;22.40;;
54271;SDS011;40184;53.362;5.216;2024-03-07T03:52:33;32.67;;;22.92;;
54271;SDS011;40184;53.362;5.216;2024-03-07T03:55:03;29.63;;;22.75;;
54271;SDS011;40184;53.362;5.216;2024-03-07T03:57:31;28.77;;;22.02;;
54271;SDS011;40184;53.362;5.216;2024-03-07T03:59:58;30.60;;;23.05;;
54271;SDS011;40184;53.362;5.216;2024-03-07T04:02:25;29.40;;;23.40;;
54271;SDS011;40184;53.362;5.216;2024-03-07T04:04:52;28.35;;;23.27;;
54271;SDS011;40184;53.362;5.216;2024-03-07T04:07:18;35.40;;;23.50;;
54271;SDS011;40184;53.362;5.216;2024-03-07T04:09:45;22.92;;;20.02;;
54271;SDS011;40184;53.362;5.216;2024-03-07T04:12:11;27.27;;;21.83;;
54271;SDS011;40184;53.362;5.216;2024-03-07T04:14:41;33.30;;;22.50;;
54271;SDS011;40184;53.362;5.216;2024-03-07T04:17:07;31.13;;;22.25;;
54271;SDS011;40184;53.362;5.216;2024-03-07T04:19:34;26.67;;;20.98;;
54271;SDS011;40184;53.362;5.216;2024-03-07T04:22:01;24.17;;;21.52;;
54271;SDS011;40184;53.362;5.216;2024-03-07T04:24:29;25.92;;;21.63;;
54271;SDS011;40184;53.362;5.216;2024-03-07T04:26:57;26.48;;;21.65;;
54271;SDS011;40184;53.362;5.216;2024-03-07T04:29:23;30.05;;;23.52;;
54271;SDS011;40184;53.362;5.216;2024-03-07T04:31:50;27.23;;;22.77;;
54271;SDS011;40184;53.362;5.216;2024-03-07T04:34:16;25.38;;;21.55;;
54271;SDS011;40184;53.362;5.216;2024-03-07T04:36:42;29.02;;;21.88;;
54271;SDS011;40184;53.362;5.216;2024-03-07T04:39:08;27.45;;;21.65;;
54271;SDS011;40184;53.362;5.216;2024-03-07T04:41:47;29.90;;;21.77;;
54271;SDS011;40184;53.362;5.216;2024-03-07T04:44:13;27.70;;;22.60;;
54271;SDS011;40184;53.362;5.216;2024-03-07T04:46:39;30.83;;;21.55;;
54271;SDS011;40184;53.362;5.216;2024-03-07T04:49:07;25.67;;;20.70;;
54271;SDS011;40184;53.362;5.216;2024-03-07T04:51:34;28.25;;;22.85;;
54271;SDS011;40184;53.362;5.216;2024-03-07T04:54:00;27.10;;;21.80;;
54271;SDS011;40184;53.362;5.216;2024-03-07T04:56:26;30.98;;;22.42;;
54271;SDS011;40184;53.362;5.216;2024-03-07T04:58:52;28.38;;;22.08;;
54271;SDS011;40184;53.362;5.216;2024-03-07T05:01:19;38.22;;;23.02;;
54271;SDS011;40184;53.362;5.216;2024-03-07T05:03:46;28.88;;;23.67;;
54271;SDS011;40184;53.362;5.216;2024-03-07T05:06:12;29.88;;;22.20;;
54271;SDS011;40184;53.362;5.216;2024-03-07T05:08:38;31.23;;;23.95;;
54271;SDS011;40184;53.362;5.216;2024-03-07T05:11:04;28.92;;;22.70;;
54271;SDS011;40184;53.362;5.216;2024-03-07T05:13:30;33.63;;;24.15;;
54271;SDS011;40184;53.362;5.216;2024-03-07T05:15:56;28.65;;;23.40;;
54271;SDS011;40184;53.362;5.216;2024-03-07T05:18:22;32.95;;;22.98;;
54271;SDS011;40184;53.362;5.216;2024-03-07T05:20:49;29.35;;;22.33;;
54271;SDS011;40184;53.362;5.216;2024-03-07T05:23:15;28.63;;;22.58;;
54271;SDS011;40184;53.362;5.216;2024-03-07T05:25:41;31.30;;;24.30;;
54271;SDS011;40184;53.362;5.216;2024-03-07T05:28:10;30.73;;;24.63;;
54271;SDS011;40184;53.362;5.216;2024-03-07T05:30:36;26.02;;;23.23;;
54271;SDS011;40184;53.362;5.216;2024-03-07T05:33:03;31.80;;;23.73;;
54271;SDS011;40184;53.362;5.216;2024-03-07T05:35:29;26.90;;;22.33;;
54271;SDS011;40184;53.362;5.216;2024-03-07T05:37:56;31.67;;;22.67;;
54271;SDS011;40184;53.362;5.216;2024-03-07T05:40:23;30.20;;;24.30;;
54271;SDS011;40184;53.362;5.216;2024-03-07T05:42:49;27.48;;;23.75;;
54271;SDS011;40184;53.362;5.216;2024-03-07T05:45:15;27.33;;;23.45;;
54271;SDS011;40184;53.362;5.216;2024-03-07T05:47:43;29.63;;;24.00;;
54271;SDS011;40184;53.362;5.216;2024-03-07T05:50:09;26.55;;;22.35;;
54271;SDS011;40184;53.362;5.216;2024-03-07T05:52:35;30.65;;;22.48;;
54271;SDS011;40184;53.362;5.216;2024-03-07T05:55:02;27.42;;;22.38;;
54271;SDS011;40184;53.362;5.216;2024-03-07T05:57:28;26.33;;;22.42;;
54271;SDS011;40184;53.362;5.216;2024-03-07T05:59:55;26.35;;;21.67;;
54271;SDS011;40184;53.362;5.216;2024-03-07T06:02:21;30.23;;;22.05;;
54271;SDS011;40184;53.362;5.216;2024-03-07T06:04:48;26.40;;;22.35;;
54271;SDS011;40184;53.362;5.216;2024-03-07T06:07:14;27.58;;;23.33;;
54271;SDS011;40184;53.362;5.216;2024-03-07T06:09:40;28.65;;;23.77;;
54271;SDS011;40184;53.362;5.216;2024-03-07T06:12:06;33.83;;;25.13;;
54271;SDS011;40184;53.362;5.216;2024-03-07T06:14:34;29.92;;;22.83;;
54271;SDS011;40184;53.362;5.216;2024-03-07T06:17:00;32.80;;;23.80;;
54271;SDS011;40184;53.362;5.216;2024-03-07T06:19:26;33.70;;;23.77;;
54271;SDS011;40184;53.362;5.216;2024-03-07T06:21:52;27.98;;;23.75;;
54271;SDS011;40184;53.362;5.216;2024-03-07T06:24:19;27.45;;;23.20;;
54271;SDS011;40184;53.362;5.216;2024-03-07T06:26:47;30.00;;;23.27;;
54271;SDS011;40184;53.362;5.216;2024-03-07T06:29:24;28.20;;;22.73;;
54271;SDS011;40184;53.362;5.216;2024-03-07T06:31:52;31.70;;;22.98;;
54271;SDS011;40184;53.362;5.216;2024-03-07T06:34:24;28.23;;;22.30;;
54271;SDS011;40184;53.362;5.216;2024-03-07T06:36:50;28.83;;;23.33;;
54271;SDS011;40184;53.362;5.216;2024-03-07T06:39:16;27.75;;;22.52;;
54271;SDS011;40184;53.362;5.216;2024-03-07T06:41:47;31.40;;;22.90;;
54271;SDS011;40184;53.362;5.216;2024-03-07T06:44:13;26.27;;;21.23;;
54271;SDS011;40184;53.362;5.216;2024-03-07T06:46:39;30.08;;;22.88;;
54271;SDS011;40184;53.362;5.216;2024-03-07T06:49:05;29.40;;;22.48;;
54271;SDS011;40184;53.362;5.216;2024-03-07T06:51:35;29.60;;;23.45;;
54271;SDS011;40184;53.362;5.216;2024-03-07T06:54:01;27.35;;;21.95;;
54271;SDS011;40184;53.362;5.216;2024-03-07T06:56:27;29.98;;;23.58;;
54271;SDS011;40184;53.362;5.216;2024-03-07T06:58:53;29.27;;;24.25;;
54271;SDS011;40184;53.362;5.216;2024-03-07T07:01:19;26.48;;;23.50;;
54271;SDS011;40184;53.362;5.216;2024-03-07T07:03:45;33.63;;;25.67;;
54271;SDS011;40184;53.362;5.216;2024-03-07T07:06:12;33.95;;;26.17;;
54271;SDS011;40184;53.362;5.216;2024-03-07T07:08:38;35.45;;;26.48;;
54271;SDS011;40184;53.362;5.216;2024-03-07T07:11:05;38.90;;;31.00;;
54271;SDS011;40184;53.362;5.216;2024-03-07T07:13:31;35.95;;;29.27;;
54271;SDS011;40184;53.362;5.216;2024-03-07T07:15:57;32.15;;;28.20;;
54271;SDS011;40184;53.362;5.216;2024-03-07T07:18:23;33.20;;;26.65;;
54271;SDS011;40184;53.362;5.216;2024-03-07T07:20:49;32.30;;;27.50;;
54271;SDS011;40184;53.362;5.216;2024-03-07T07:23:19;35.90;;;27.50;;
54271;SDS011;40184;53.362;5.216;2024-03-07T07:25:45;30.88;;;26.15;;
54271;SDS011;40184;53.362;5.216;2024-03-07T07:28:11;34.15;;;26.70;;
54271;SDS011;40184;53.362;5.216;2024-03-07T07:30:38;32.60;;;27.13;;
54271;SDS011;40184;53.362;5.216;2024-03-07T07:33:04;34.13;;;27.38;;
54271;SDS011;40184;53.362;5.216;2024-03-07T07:35:30;36.75;;;28.63;;
54271;SDS011;40184;53.362;5.216;2024-03-07T07:37:56;36.38;;;27.63;;
54271;SDS011;40184;53.362;5.216;2024-03-07T07:40:23;35.47;;;27.92;;
54271;SDS011;40184;53.362;5.216;2024-03-07T07:42:51;46.30;;;30.75;;
54271;SDS011;40184;53.362;5.216;2024-03-07T07:45:18;47.90;;;31.88;;
54271;SDS011;40184;53.362;5.216;2024-03-07T07:47:45;35.33;;;29.45;;
54271;SDS011;40184;53.362;5.216;2024-03-07T07:50:13;42.90;;;31.58;;
54271;SDS011;40184;53.362;5.216;2024-03-07T07:53:03;42.78;;;33.88;;
54271;SDS011;40184;53.362;5.216;2024-03-07T07:55:34;40.95;;;30.27;;
54271;SDS011;40184;53.362;5.216;2024-03-07T07:58:00;34.10;;;28.17;;
54271;SDS011;40184;53.362;5.216;2024-03-07T08:00:29;38.75;;;29.88;;
54271;SDS011;40184;53.362;5.216;2024-03-07T08:05:22;47.55;;;35.92;;
54271;SDS011;40184;53.362;5.216;2024-03-07T08:07:49;42.67;;;31.35;;
54271;SDS011;40184;53.362;5.216;2024-03-07T08:10:16;34.33;;;28.17;;
54271;SDS011;40184;53.362;5.216;2024-03-07T08:12:42;33.30;;;25.38;;
54271;SDS011;40184;53.362;5.216;2024-03-07T08:15:09;40.83;;;28.63;;
54271;SDS011;40184;53.362;5.216;2024-03-07T08:17:38;36.30;;;25.92;;
54271;SDS011;40184;53.362;5.216;2024-03-07T08:20:05;36.63;;;27.50;;
54271;SDS011;40184;53.362;5.216;2024-03-07T08:22:36;32.97;;;26.52;;
54271;SDS011;40184;53.362;5.216;2024-03-07T08:25:02;37.65;;;29.67;;
54271;SDS011;40184;53.362;5.216;2024-03-07T08:27:34;37.05;;;28.75;;
54271;SDS011;40184;53.362;5.216;2024-03-07T08:30:00;40.65;;;32.38;;
54271;SDS011;40184;53.362;5.216;2024-03-07T08:32:26;39.38;;;31.30;;
54271;SDS011;40184;53.362;5.216;2024-03-07T08:34:52;40.88;;;30.88;;
54271;SDS011;40184;53.362;5.216;2024-03-07T08:37:19;41.80;;;31.80;;
54271;SDS011;40184;53.362;5.216;2024-03-07T08:39:46;38.25;;;31.23;;
54271;SDS011;40184;53.362;5.216;2024-03-07T08:42:12;40.03;;;31.42;;
54271;SDS011;40184;53.362;5.216;2024-03-07T08:44:38;38.38;;;30.13;;
54271;SDS011;40184;53.362;5.216;2024-03-07T08:47:05;37.58;;;28.60;;
54271;SDS011;40184;53.362;5.216;2024-03-07T08:49:31;36.65;;;28.63;;
54271;SDS011;40184;53.362;5.216;2024-03-07T08:51:57;36.17;;;29.17;;
54271;SDS011;40184;53.362;5.216;2024-03-07T08:54:23;37.80;;;28.88;;
54271;SDS011;40184;53.362;5.216;2024-03-07T08:56:49;41.20;;;29.42;;
54271;SDS011;40184;53.362;5.216;2024-03-07T08:59:15;37.35;;;29.23;;
54271;SDS011;40184;53.362;5.216;2024-03-07T09:01:43;41.97;;;31.55;;
54271;SDS011;40184;53.362;5.216;2024-03-07T09:04:09;35.35;;;27.50;;
54271;SDS011;40184;53.362;5.216;2024-03-07T09:06:36;40.50;;;28.88;;
54271;SDS011;40184;53.362;5.216;2024-03-07T09:09:03;33.50;;;27.35;;
54271;SDS011;40184;53.362;5.216;2024-03-07T09:11:29;34.22;;;25.75;;
54271;SDS011;40184;53.362;5.216;2024-03-07T09:13:55;36.55;;;27.73;;
54271;SDS011;40184;53.362;5.216;2024-03-07T09:16:21;33.45;;;25.80;;
54271;SDS011;40184;53.362;5.216;2024-03-07T09:18:47;38.30;;;27.35;;
54271;SDS011;40184;53.362;5.216;2024-03-07T09:21:13;37.65;;;25.65;;
54271;SDS011;40184;53.362;5.216;2024-03-07T09:23:40;35.78;;;25.75;;
54271;SDS011;40184;53.362;5.216;2024-03-07T09:26:06;32.45;;;25.10;;
54271;SDS011;40184;53.362;5.216;2024-03-07T09:28:33;34.47;;;24.35;;
54271;SDS011;40184;53.362;5.216;2024-03-07T09:30:59;32.30;;;23.65;;
54271;SDS011;40184;53.362;5.216;2024-03-07T09:33:25;30.15;;;25.10;;
54271;SDS011;40184;53.362;5.216;2024-03-07T09:35:51;36.30;;;27.70;;
54271;SDS011;40184;53.362;5.216;2024-03-07T09:38:18;35.30;;;25.65;;
54271;SDS011;40184;53.362;5.216;2024-03-07T09:40:44;42.20;;;26.38;;
54271;SDS011;40184;53.362;5.216;2024-03-07T09:43:11;33.58;;;26.70;;
54271;SDS011;40184;53.362;5.216;2024-03-07T09:45:38;36.88;;;25.35;;
54271;SDS011;40184;53.362;5.216;2024-03-07T09:48:05;32.97;;;25.45;;
54271;SDS011;40184;53.362;5.216;2024-03-07T09:50:34;32.67;;;25.00;;
54271;SDS011;40184;53.362;5.216;2024-03-07T09:53:01;32.65;;;24.23;;
54271;SDS011;40184;53.362;5.216;2024-03-07T09:55:28;31.55;;;24.35;;
54271;SDS011;40184;53.362;5.216;2024-03-07T09:57:54;29.60;;;23.27;;
54271;SDS011;40184;53.362;5.216;2024-03-07T10:00:21;27.10;;;23.10;;
54271;SDS011;40184;53.362;5.216;2024-03-07T10:02:49;28.10;;;23.20;;
54271;SDS011;40184;53.362;5.216;2024-03-07T10:05:15;32.80;;;23.80;;
54271;SDS011;40184;53.362;5.216;2024-03-07T10:07:43;32.80;;;25.52;;
54271;SDS011;40184;53.362;5.216;2024-03-07T10:10:10;31.67;;;25.20;;
54271;SDS011;40184;53.362;5.216;2024-03-07T10:12:37;29.20;;;24.05;;
54271;SDS011;40184;53.362;5.216;2024-03-07T10:15:03;35.15;;;25.05;;
54271;SDS011;40184;53.362;5.216;2024-03-07T10:17:38;32.30;;;24.83;;
54271;SDS011;40184;53.362;5.216;2024-03-07T10:20:06;34.78;;;25.70;;
54271;SDS011;40184;53.362;5.216;2024-03-07T10:22:35;27.52;;;24.23;;
54271;SDS011;40184;53.362;5.216;2024-03-07T10:25:01;34.00;;;26.80;;
54271;SDS011;40184;53.362;5.216;2024-03-07T10:27:29;35.10;;;27.15;;
54271;SDS011;40184;53.362;5.216;2024-03-07T10:29:55;33.67;;;28.35;;
54271;SDS011;40184;53.362;5.216;2024-03-07T10:32:21;41.60;;;28.33;;
54271;SDS011;40184;53.362;5.216;2024-03-07T10:34:50;36.58;;;27.23;;
54271;SDS011;40184;53.362;5.216;2024-03-07T10:37:17;37.88;;;27.55;;
54271;SDS011;40184;53.362;5.216;2024-03-07T10:39:48;34.08;;;26.23;;
54271;SDS011;40184;53.362;5.216;2024-03-07T10:42:15;32.65;;;26.88;;
54271;SDS011;40184;53.362;5.216;2024-03-07T10:44:46;36.58;;;27.55;;
54271;SDS011;40184;53.362;5.216;2024-03-07T10:47:18;36.22;;;29.23;;
54271;SDS011;40184;53.362;5.216;2024-03-07T10:52:17;32.65;;;26.48;;
54271;SDS011;40184;53.362;5.216;2024-03-07T10:54:57;34.55;;;28.52;;
54271;SDS011;40184;53.362;5.216;2024-03-07T10:57:31;33.28;;;26.00;;
54271;SDS011;40184;53.362;5.216;2024-03-07T10:59:58;35.83;;;27.45;;
54271;SDS011;40184;53.362;5.216;2024-03-07T11:04:55;31.52;;;24.48;;
54271;SDS011;40184;53.362;5.216;2024-03-07T11:07:21;31.30;;;26.38;;
54271;SDS011;40184;53.362;5.216;2024-03-07T11:09:51;32.05;;;25.00;;
54271;SDS011;40184;53.362;5.216;2024-03-07T11:12:19;36.25;;;26.73;;
54271;SDS011;40184;53.362;5.216;2024-03-07T11:14:47;33.90;;;28.48;;
54271;SDS011;40184;53.362;5.216;2024-03-07T11:17:14;37.13;;;29.33;;
54271;SDS011;40184;53.362;5.216;2024-03-07T11:19:40;43.13;;;32.28;;
54271;SDS011;40184;53.362;5.216;2024-03-07T11:22:07;60.08;;;42.40;;
54271;SDS011;40184;53.362;5.216;2024-03-07T11:24:43;65.32;;;43.75;;
54271;SDS011;40184;53.362;5.216;2024-03-07T11:27:10;64.53;;;42.03;;
54271;SDS011;40184;53.362;5.216;2024-03-07T11:29:42;55.65;;;37.50;;
54271;SDS011;40184;53.362;5.216;2024-03-07T11:32:12;51.05;;;35.90;;
54271;SDS011;40184;53.362;5.216;2024-03-07T11:34:39;39.65;;;28.70;;
54271;SDS011;40184;53.362;5.216;2024-03-07T11:37:06;36.33;;;25.48;;
54271;SDS011;40184;53.362;5.216;2024-03-07T11:39:41;31.52;;;25.30;;
54271;SDS011;40184;53.362;5.216;2024-03-07T11:42:20;34.10;;;26.50;;
54271;SDS011;40184;53.362;5.216;2024-03-07T11:44:47;32.67;;;25.52;;
54271;SDS011;40184;53.362;5.216;2024-03-07T11:47:13;32.00;;;26.05;;
54271;SDS011;40184;53.362;5.216;2024-03-07T11:49:39;28.80;;;25.02;;
54271;SDS011;40184;53.362;5.216;2024-03-07T11:52:05;35.15;;;27.92;;
54271;SDS011;40184;53.362;5.216;2024-03-07T11:54:38;34.88;;;26.63;;
54271;SDS011;40184;53.362;5.216;2024-03-07T11:57:11;38.33;;;28.58;;
54271;SDS011;40184;53.362;5.216;2024-03-07T11:59:40;39.88;;;28.45;;
54271;SDS011;40184;53.362;5.216;2024-03-07T12:02:10;32.30;;;25.90;;
54271;SDS011;40184;53.362;5.216;2024-03-07T12:04:36;32.60;;;25.50;;
54271;SDS011;40184;53.362;5.216;2024-03-07T12:07:02;32.38;;;25.98;;
54271;SDS011;40184;53.362;5.216;2024-03-07T12:09:31;36.65;;;27.10;;
54271;SDS011;40184;53.362;5.216;2024-03-07T12:11:57;35.50;;;27.52;;
54271;SDS011;40184;53.362;5.216;2024-03-07T12:14:24;36.70;;;27.35;;
54271;SDS011;40184;53.362;5.216;2024-03-07T12:16:50;41.25;;;27.70;;
54271;SDS011;40184;53.362;5.216;2024-03-07T12:19:17;41.40;;;28.80;;
54271;SDS011;40184;53.362;5.216;2024-03-07T12:21:46;44.75;;;31.08;;
54271;SDS011;40184;53.362;5.216;2024-03-07T12:24:13;39.95;;;27.42;;
54271;SDS011;40184;53.362;5.216;2024-03-07T12:26:43;36.50;;;26.58;;
54271;SDS011;40184;53.362;5.216;2024-03-07T12:29:10;39.15;;;27.73;;
54271;SDS011;40184;53.362;5.216;2024-03-07T12:31:39;39.75;;;28.35;;
54271;SDS011;40184;53.362;5.216;2024-03-07T12:34:06;37.90;;;27.70;;
54271;SDS011;40184;53.362;5.216;2024-03-07T12:36:37;42.10;;;28.30;;
54271;SDS011;40184;53.362;5.216;2024-03-07T12:39:22;37.08;;;26.90;;
54271;SDS011;40184;53.362;5.216;2024-03-07T12:41:53;36.33;;;27.15;;
54271;SDS011;40184;53.362;5.216;2024-03-07T12:44:21;32.42;;;24.27;;
54271;SDS011;40184;53.362;5.216;2024-03-07T12:46:48;37.03;;;24.88;;
54271;SDS011;40184;53.362;5.216;2024-03-07T12:49:14;33.55;;;23.58;;
54271;SDS011;40184;53.362;5.216;2024-03-07T12:51:41;33.60;;;23.92;;
54271;SDS011;40184;53.362;5.216;2024-03-07T12:54:07;36.88;;;24.35;;
54271;SDS011;40184;53.362;5.216;2024-03-07T12:56:35;40.80;;;28.83;;
54271;SDS011;40184;53.362;5.216;2024-03-07T12:59:05;35.90;;;26.63;;
54271;SDS011;40184;53.362;5.216;2024-03-07T13:01:35;39.33;;;27.48;;
54271;SDS011;40184;53.362;5.216;2024-03-07T13:04:05;36.10;;;25.63;;
54271;SDS011;40184;53.362;5.216;2024-03-07T13:06:35;34.42;;;24.73;;
54271;SDS011;40184;53.362;5.216;2024-03-07T13:09:01;33.03;;;24.55;;
54271;SDS011;40184;53.362;5.216;2024-03-07T13:11:35;34.25;;;26.05;;
54271;SDS011;40184;53.362;5.216;2024-03-07T13:14:05;31.90;;;23.92;;
54271;SDS011;40184;53.362;5.216;2024-03-07T13:16:32;32.78;;;24.83;;
54271;SDS011;40184;53.362;5.216;2024-03-07T13:18:58;38.72;;;26.08;;
54271;SDS011;40184;53.362;5.216;2024-03-07T13:21:24;37.17;;;24.30;;
54271;SDS011;40184;53.362;5.216;2024-03-07T13:23:52;33.53;;;25.60;;
54271;SDS011;40184;53.362;5.216;2024-03-07T13:26:20;32.08;;;24.95;;
54271;SDS011;40184;53.362;5.216;2024-03-07T13:28:53;36.70;;;25.52;;
54271;SDS011;40184;53.362;5.216;2024-03-07T13:31:19;34.47;;;25.35;;
54271;SDS011;40184;53.362;5.216;2024-03-07T13:33:45;32.67;;;23.48;;
54271;SDS011;40184;53.362;5.216;2024-03-07T13:36:12;29.50;;;23.50;;
54271;SDS011;40184;53.362;5.216;2024-03-07T13:38:47;31.02;;;24.33;;
54271;SDS011;40184;53.362;5.216;2024-03-07T13:41:13;28.58;;;23.63;;
54271;SDS011;40184;53.362;5.216;2024-03-07T13:43:39;30.10;;;22.95;;
54271;SDS011;40184;53.362;5.216;2024-03-07T13:46:05;34.30;;;25.75;;
54271;SDS011;40184;53.362;5.216;2024-03-07T13:48:32;34.38;;;24.38;;
54271;SDS011;40184;53.362;5.216;2024-03-07T13:51:01;33.15;;;25.90;;
54271;SDS011;40184;53.362;5.216;2024-03-07T13:53:33;33.65;;;24.67;;
54271;SDS011;40184;53.362;5.216;2024-03-07T13:58:48;30.90;;;24.45;;
54271;SDS011;40184;53.362;5.216;2024-03-07T14:23:05;31.88;;;24.67;;
54271;SDS011;40184;53.362;5.216;2024-03-07T14:30:55;34.50;;;26.38;;
54271;SDS011;40184;53.362;5.216;2024-03-07T14:36:15;50.13;;;36.70;;
54271;SDS011;40184;53.362;5.216;2024-03-07T14:38:48;36.15;;;28.00;;
54271;SDS011;40184;53.362;5.216;2024-03-07T14:41:16;43.20;;;30.10;;
54271;SDS011;40184;53.362;5.216;2024-03-07T14:43:43;46.15;;;33.30;;
54271;SDS011;40184;53.362;5.216;2024-03-07T14:46:10;37.22;;;26.05;;
54271;SDS011;40184;53.362;5.216;2024-03-07T14:48:37;37.70;;;27.83;;
54271;SDS011;40184;53.362;5.216;2024-03-07T14:51:04;53.95;;;28.73;;
54271;SDS011;40184;53.362;5.216;2024-03-07T14:53:30;38.33;;;27.23;;
54271;SDS011;40184;53.362;5.216;2024-03-07T14:55:56;32.17;;;23.02;;
54271;SDS011;40184;53.362;5.216;2024-03-07T14:58:23;30.77;;;23.48;;
54271;SDS011;40184;53.362;5.216;2024-03-07T15:00:49;31.63;;;24.60;;
54271;SDS011;40184;53.362;5.216;2024-03-07T15:03:18;28.90;;;22.15;;
54271;SDS011;40184;53.362;5.216;2024-03-07T15:05:44;26.08;;;20.52;;